Time;durP1;ratioP1;P1;durP2;ratioP2;P2;SDS_P1;SDS_P2;PMS_P1;PMS_P2;Temp;Humidity;BMP_temperature;BMP_pressure;BME280_temperature;BME280_humidity;BME280_pressure;Samples;Min_cycle;Max_cycle;Signal;HPM_P1;HPM_P2
2022/09/25 00:00:02;;;;;;;3.05;2.00;;;;;;;14.73;71.54;100812.69;5089772;29;20071;-82
2022/09/25 00:02:33;;;;;;;1.27;1.10;;;;;;;14.61;72.72;100819.31;5071696;29;20130;-82
2022/09/25 00:05:05;;;;;;;0.73;0.70;;;;;;;14.71;72.20;100818.06;5074037;29;20047;-82
2022/09/25 00:07:36;;;;;;;3.53;1.67;;;;;;;14.60;72.01;100822.88;5092329;29;20341;-81
2022/09/25 00:10:07;;;;;;;0.60;0.60;;;;;;;14.55;72.87;100820.44;5087760;29;20066;-81
2022/09/25 00:12:38;;;;;;;2.63;2.05;;;;;;;14.66;72.14;100824.41;5080835;29;20094;-82
2022/09/25 00:15:09;;;;;;;0.80;0.80;;;;;;;14.57;71.60;100815.97;5093190;29;20043;-82
2022/09/25 00:17:42;;;;;;;0.50;0.50;;;;;;;14.60;72.25;100812.31;5111615;28;20047;-82
2022/09/25 00:20:15;;;;;;;0.88;0.88;;;;;;;14.72;72.24;100821.53;5102474;28;20303;-82
2022/09/25 00:22:46;;;;;;;0.98;0.98;;;;;;;14.60;71.30;100812.31;5076875;29;20759;-81
2022/09/25 00:25:17;;;;;;;1.05;0.95;;;;;;;14.45;73.18;100817.34;5102404;29;20059;-81
2022/09/25 00:27:52;;;;;;;1.00;0.93;;;;;;;14.53;72.09;100809.09;5087123;29;20028;-82
2022/09/25 00:30:22;;;;;;;1.08;1.05;;;;;;;14.54;71.64;100817.88;5070633;28;20050;-82
2022/09/25 00:32:53;;;;;;;0.93;0.93;;;;;;;14.48;72.13;100813.69;5091113;29;20744;-80
2022/09/25 00:35:24;;;;;;;2.00;1.63;;;;;;;14.41;72.34;100809.59;5099293;28;20561;-81
2022/09/25 00:37:54;;;;;;;0.68;0.68;;;;;;;14.51;71.31;100816.22;5082801;29;20066;-81
2022/09/25 00:40:25;;;;;;;0.70;0.70;;;;;;;14.47;71.29;100807.56;5082299;28;20065;-81
2022/09/25 00:42:55;;;;;;;2.00;1.90;;;;;;;14.43;72.25;100808.63;5093897;29;20142;-80
2022/09/25 00:45:26;;;;;;;2.70;1.60;;;;;;;14.44;72.00;100809.50;5125638;29;20130;-81
2022/09/25 00:48:04;;;;;;;1.85;1.25;;;;;;;14.40;72.02;100813.16;5116969;29;20043;-82
2022/09/25 00:50:43;;;;;;;0.63;0.63;;;;;;;14.39;71.63;100820.25;5085297;28;20038;-81
2022/09/25 00:53:19;;;;;;;0.60;0.60;;;;;;;14.37;72.04;100818.59;5093970;29;20110;-81
2022/09/25 00:55:51;;;;;;;0.43;0.43;;;;;;;14.44;71.54;100822.69;5071104;29;20050;-81
2022/09/25 00:58:24;;;;;;;1.45;1.33;;;;;;;14.38;71.08;100828.22;5073144;29;20043;-82
2022/09/25 01:00:55;;;;;;;1.10;1.00;;;;;;;14.32;71.45;100832.81;5078556;29;20142;-82
2022/09/25 01:03:26;;;;;;;0.40;0.40;;;;;;;14.45;70.90;100833.19;5087495;29;20137;-82
2022/09/25 01:05:59;;;;;;;0.25;0.25;;;;;;;14.24;72.11;100828.78;5065084;29;20036;-82
2022/09/25 01:08:31;;;;;;;0.88;0.82;;;;;;;14.24;71.44;100828.78;5092754;28;20133;-82
2022/09/25 01:11:03;;;;;;;2.10;1.08;;;;;;;14.11;72.33;100828.44;5095206;29;20043;-82
2022/09/25 01:13:45;;;;;;;1.30;1.20;;;;;;;14.13;71.82;100827.44;5102172;29;20118;-82
2022/09/25 01:16:24;;;;;;;1.70;1.35;;;;;;;14.05;72.43;100829.53;5104420;29;20023;-81
2022/09/25 01:19:18;;;;;;;0.22;0.22;;;;;;;14.25;71.33;100833.16;5083328;29;20056;-82
2022/09/25 01:21:52;;;;;;;;;;;;;;;14.27;71.28;100823.38;5069362;29;20043;-80
2022/09/25 01:24:38;;;;;;;0.88;0.88;;;;;;;14.32;70.66;100829.34;5076852;29;19932;-82
2022/09/25 01:27:29;;;;;;;1.85;0.90;;;;;;;14.27;70.89;100826.00;5096340;28;20046;-83
2022/09/25 01:30:03;;;;;;;6.32;1.77;;;;;;;14.27;71.16;100829.53;5101604;29;20115;-81
2022/09/25 01:32:50;;;;;;;0.75;0.55;;;;;;;14.21;70.87;100819.22;5120412;28;20073;-82
2022/09/25 01:35:39;;;;;;;0.30;0.30;;;;;;;14.16;71.47;100829.97;5083089;28;20512;-83
2022/09/25 01:38:35;;;;;;;0.52;0.52;;;;;;;14.17;70.91;100826.38;5071400;29;20360;-81
2022/09/25 01:41:17;;;;;;;0.40;0.40;;;;;;;14.19;70.40;100830.75;5094623;29;20063;-82
2022/09/25 01:44:12;;;;;;;0.88;0.70;;;;;;;14.24;70.66;100826.16;5073729;28;20084;-82
2022/09/25 01:46:49;;;;;;;0.57;0.57;;;;;;;14.23;71.00;100827.91;5066963;29;20035;-82
2022/09/25 01:49:31;;;;;;;6.97;1.13;;;;;;;14.21;71.76;100835.06;5081835;29;20059;-82
2022/09/25 01:52:07;;;;;;;0.50;0.50;;;;;;;14.20;71.17;100830.69;5079174;29;20043;-82
2022/09/25 01:54:43;;;;;;;0.68;0.68;;;;;;;14.12;71.45;100833.63;5088938;29;20044;-81
2022/09/25 01:57:26;;;;;;;0.32;0.32;;;;;;;14.24;70.95;100842.00;5085385;29;20404;-82
2022/09/25 02:00:04;;;;;;;0.50;0.50;;;;;;;14.19;72.04;100838.66;5114717;29;20467;-81
2022/09/25 02:02:48;;;;;;;2.10;1.58;;;;;;;14.15;71.32;100838.78;5084683;28;20047;-82
2022/09/25 02:05:25;;;;;;;1.70;1.17;;;;;;;14.19;72.03;100844.81;5082817;29;20043;-82
2022/09/25 02:08:09;;;;;;;0.30;0.30;;;;;;;14.14;71.14;100847.63;5097936;29;20043;-81
2022/09/25 02:10:48;;;;;;;1.30;1.17;;;;;;;14.19;71.14;100844.81;5106875;28;20393;-82
2022/09/25 02:13:20;;;;;;;0.73;0.70;;;;;;;14.10;72.42;100846.03;5105520;29;20043;-81
2022/09/25 02:15:56;;;;;;;0.57;0.57;;;;;;;14.08;72.45;100842.59;5118672;28;20368;-83
2022/09/25 02:21:58;;;;;;;0.85;0.77;;;;;;;14.12;71.63;100843.34;5112939;29;20047;-82
2022/09/25 02:24:39;;;;;;;0.30;0.30;;;;;;;14.11;71.92;100842.47;5098278;29;20051;-82
2022/09/25 02:27:10;;;;;;;0.77;0.77;;;;;;;14.11;72.47;100850.38;5096029;28;20118;-82
2022/09/25 02:29:41;;;;;;;0.40;0.40;;;;;;;14.02;72.16;100842.81;5082972;29;20126;-82
2022/09/25 02:32:16;;;;;;;0.85;0.63;;;;;;;14.10;71.60;100845.19;5072084;28;20050;-81
2022/09/25 02:34:47;;;;;;;6.45;2.40;;;;;;;14.10;71.31;100846.03;5087249;29;20043;-81
2022/09/25 02:37:17;;;;;;;1.35;1.02;;;;;;;14.17;71.47;100844.84;5109933;28;20035;-81
2022/09/25 02:39:51;;;;;;;0.22;0.22;;;;;;;14.05;72.41;100845.34;5088526;29;20046;-81
2022/09/25 02:42:58;;;;;;;0.22;0.22;;;;;;;14.11;72.05;100846.91;5082510;28;20043;-82
2022/09/25 02:45:40;;;;;;;0.75;0.43;;;;;;;14.11;71.56;100845.09;5081986;28;20134;-81
2022/09/25 02:48:23;;;;;;;0.20;0.20;;;;;;;14.22;72.61;100838.53;5076116;29;20535;-82
2022/09/25 02:51:04;;;;;;;0.50;0.50;;;;;;;14.09;73.29;100841.66;5086719;28;20051;-81
2022/09/25 02:54:04;;;;;;;0.30;0.30;;;;;;;14.10;72.55;100846.03;5086014;29;20126;-82
2022/09/25 02:56:45;;;;;;;0.20;0.20;;;;;;;13.96;73.08;100841.31;5064014;28;20042;-81
2022/09/25 02:59:26;;;;;;;0.40;0.40;;;;;;;14.11;72.05;100838.97;5102296;29;20126;-81
2022/09/25 03:02:07;;;;;;;0.20;0.20;;;;;;;14.03;72.16;100838.44;5102788;29;20797;-81
2022/09/25 03:04:44;;;;;;;0.52;0.52;;;;;;;14.00;72.09;100836.78;5089597;28;20059;-82
2022/09/25 03:08:36;;;;;;;0.17;0.17;;;;;;;14.01;72.09;100846.38;5072442;28;20134;-82
2022/09/25 03:10:26;;;;;;;0.63;0.63;;;;;;;13.91;73.47;100837.13;5048307;29;20422;-80
2022/09/25 03:13:12;;;;;;;0.30;0.30;;;;;;;13.96;72.72;100835.16;5079646;29;20709;-79
2022/09/25 03:15:47;;;;;;;0.55;0.55;;;;;;;14.02;72.23;100842.81;5099175;28;20032;-81
2022/09/25 03:18:18;;;;;;;0.20;0.20;;;;;;;13.89;72.72;100838.97;5129912;28;20112;-82
2022/09/25 03:20:48;;;;;;;1.98;1.33;;;;;;;13.89;72.66;100844.25;5116952;28;20389;-81
2022/09/25 03:23:19;;;;;;;1.48;1.33;;;;;;;13.87;72.26;100846.94;5091220;29;20050;-82
2022/09/25 03:25:54;;;;;;;0.35;0.28;;;;;;;13.89;72.00;100844.25;5085942;29;20462;-82
2022/09/25 03:28:25;;;;;;;2.63;1.45;;;;;;;13.91;72.39;100855.59;5100462;29;20495;-81
2022/09/25 03:30:58;;;;;;;3.17;1.83;;;;;;;13.93;72.45;100856.38;5072831;29;20130;-82
2022/09/25 03:33:33;;;;;;;0.40;0.40;;;;;;;13.96;72.00;100857.13;5102684;29;20049;-81
2022/09/25 03:36:10;;;;;;;3.63;1.38;;;;;;;14.00;72.17;100852.59;5099832;29;20071;-81
2022/09/25 03:38:42;;;;;;;0.50;0.50;;;;;;;13.88;72.86;100856.59;5099925;29;20035;-82
2022/09/25 03:41:16;;;;;;;0.30;0.30;;;;;;;13.93;72.30;100859.88;5083968;29;20408;-82
2022/09/25 03:43:50;;;;;;;0.20;0.20;;;;;;;13.84;73.04;100857.59;5066516;29;20127;-79
2022/09/25 03:46:32;;;;;;;0.20;0.20;;;;;;;13.77;72.79;100859.59;5097489;29;20044;-80
2022/09/25 03:49:03;;;;;;;0.20;0.20;;;;;;;13.90;72.80;100851.22;5097863;29;20044;-79
2022/09/25 03:51:34;;;;;;;1.67;0.88;;;;;;;13.88;71.90;100855.69;5067230;29;20452;-79
2022/09/25 03:54:05;;;;;;;0.50;0.50;;;;;;;13.85;71.69;100854.91;5089534;29;20215;-79
2022/09/25 03:56:35;;;;;;;0.63;0.63;;;;;;;13.83;71.87;100858.50;5095648;29;20068;-80
2022/09/25 03:59:06;;;;;;;0.32;0.32;;;;;;;13.81;72.66;100850.69;5079000;29;20155;-79
2022/09/25 04:01:36;;;;;;;0.60;0.60;;;;;;;13.88;72.06;100856.59;5081210;29;20040;-81
2022/09/25 04:04:07;;;;;;;0.40;0.40;;;;;;;13.81;72.65;100862.97;5099078;29;20717;-80
2022/09/25 04:06:37;;;;;;;0.20;0.20;;;;;;;13.95;72.53;100857.19;5100512;29;20054;-80
2022/09/25 04:09:08;;;;;;;0.40;0.40;;;;;;;13.82;72.30;100860.31;5100343;29;20544;-79
2022/09/25 04:11:38;;;;;;;0.50;0.50;;;;;;;13.92;73.41;100855.53;5074977;29;20071;-80
2022/09/25 04:14:11;;;;;;;1.10;1.10;;;;;;;13.67;73.13;100853.84;5071595;29;20048;-80
2022/09/25 04:16:42;;;;;;;0.67;0.67;;;;;;;13.75;73.33;100856.19;5098801;29;20115;-80
2022/09/25 04:19:14;;;;;;;1.65;1.15;;;;;;;13.70;73.38;100855.50;5086549;29;20048;-79
2022/09/25 04:21:45;;;;;;;0.20;0.20;;;;;;;13.70;73.14;100855.50;5101082;29;20063;-80
2022/09/25 04:27:05;;;;;;;1.23;1.20;;;;;;;13.77;72.94;100843.78;5112489;29;20496;-80
2022/09/25 04:29:36;;;;;;;0.32;0.32;;;;;;;13.68;72.76;100846.78;5100405;29;20078;-80
2022/09/25 04:34:57;;;;;;;0.22;0.22;;;;;;;13.74;72.57;100848.31;5101348;29;20043;-80
2022/09/25 04:37:28;;;;;;;0.30;0.30;;;;;;;13.68;72.09;100842.38;5116037;28;20110;-80
2022/09/25 04:39:58;;;;;;;0.93;0.73;;;;;;;13.60;72.22;100844.44;5116827;29;20098;-80
2022/09/25 04:42:31;;;;;;;0.40;0.40;;;;;;;13.61;72.02;100845.28;5115474;28;20043;-80
2022/09/25 04:45:02;;;;;;;0.20;0.20;;;;;;;13.62;72.14;100844.38;5127478;29;20051;-80
2022/09/25 04:47:32;;;;;;;0.63;0.63;;;;;;;13.57;72.09;100847.19;5082157;28;20114;-80
2022/09/25 04:50:03;;;;;;;0.40;0.40;;;;;;;13.58;71.79;100846.28;5072526;29;20067;-79
2022/09/25 04:52:34;;;;;;;0.77;0.50;;;;;;;13.60;71.57;100851.47;5086026;28;20062;-80
2022/09/25 04:55:05;;;;;;;0.20;0.20;;;;;;;13.57;71.73;100855.09;5113701;29;20059;-80
2022/09/25 04:57:38;;;;;;;0.90;0.90;;;;;;;13.61;72.12;100861.09;5110899;28;20648;-80
2022/09/25 05:00:10;;;;;;;0.32;0.32;;;;;;;13.56;71.58;100861.28;5073409;29;20047;-81
2022/09/25 05:02:40;;;;;;;0.47;0.47;;;;;;;13.56;71.51;100861.28;5071417;28;20131;-80
2022/09/25 05:05:11;;;;;;;0.40;0.40;;;;;;;13.53;71.59;100861.41;5075506;29;20114;-79
2022/09/25 05:07:52;;;;;;;0.20;0.20;;;;;;;13.52;71.62;100873.72;5073373;29;20043;-80
2022/09/25 05:10:29;;;;;;;0.60;0.60;;;;;;;13.51;71.33;100872.00;5086963;29;20417;-80
2022/09/25 05:13:01;;;;;;;0.20;0.20;;;;;;;13.48;71.80;100864.22;5073150;29;20074;-80
2022/09/25 05:15:32;;;;;;;0.20;0.20;;;;;;;13.49;71.32;100868.56;5097335;29;20115;-80
2022/09/25 05:18:03;;;;;;;0.80;0.80;;;;;;;13.52;71.18;100865.81;5072989;29;20027;-80
2022/09/25 05:20:34;;;;;;;0.43;0.43;;;;;;;13.49;71.20;100868.56;5073859;29;20130;-80
2022/09/25 05:23:05;;;;;;;0.47;0.47;;;;;;;13.43;71.83;100867.94;5074676;29;20423;-80
2022/09/25 05:25:36;;;;;;;0.90;0.57;;;;;;;13.43;71.25;100866.13;5074771;29;20040;-79
2022/09/25 05:28:06;;;;;;;0.50;0.50;;;;;;;13.42;71.29;100866.19;5101261;29;20118;-80
2022/09/25 05:30:38;;;;;;;0.43;0.43;;;;;;;13.48;71.78;100860.69;5098769;29;20154;-80
2022/09/25 05:33:08;;;;;;;1.30;1.20;;;;;;;13.54;70.99;100868.41;5103802;29;20063;-80
2022/09/25 05:35:39;;;;;;;0.57;0.55;;;;;;;13.42;71.53;100863.56;5101520;28;20070;-81
2022/09/25 05:38:11;;;;;;;0.20;0.20;;;;;;;13.40;71.23;100868.91;5093956;29;20035;-81
2022/09/25 05:40:42;;;;;;;0.20;0.20;;;;;;;13.41;71.86;100865.34;5093339;28;20031;-81
2022/09/25 05:43:12;;;;;;;0.95;0.57;;;;;;;13.50;71.19;100864.16;5100895;29;20047;-81
2022/09/25 05:45:43;;;;;;;4.75;0.88;;;;;;;13.39;71.82;100867.19;5097792;29;20040;-81
2022/09/25 05:48:13;;;;;;;0.40;0.40;;;;;;;13.38;72.47;100866.34;5107274;29;20039;-80
2022/09/25 05:50:50;;;;;;;0.30;0.30;;;;;;;13.49;71.75;100868.56;5098652;28;20027;-82
2022/09/25 05:53:22;;;;;;;0.35;0.35;;;;;;;13.39;71.81;100867.19;5114314;29;20572;-81
2022/09/25 05:56:24;;;;;;;0.30;0.30;;;;;;;13.32;72.14;100868.28;5126161;28;20026;-82
2022/09/25 06:03:03;;;;;;;1.63;1.52;;;;;;;13.25;72.46;100867.66;5119718;28;20063;-82
2022/09/25 06:05:35;;;;;;;0.35;0.35;;;;;;;13.20;72.84;100874.88;5122579;28;20047;-81
2022/09/25 06:08:06;;;;;;;1.20;1.10;;;;;;;13.22;72.86;100879.16;5104416;29;20459;-80
2022/09/25 06:10:38;;;;;;;0.25;0.25;;;;;;;13.29;71.83;100877.19;5074318;29;20138;-81
2022/09/25 06:13:08;;;;;;;0.57;0.57;;;;;;;13.28;72.53;100879.84;5077415;29;20099;-80
2022/09/25 06:15:40;;;;;;;0.30;0.30;;;;;;;13.25;72.14;100887.88;5072813;29;20035;-81
2022/09/25 06:18:11;;;;;;;0.30;0.30;;;;;;;13.36;72.15;100883.94;5088793;29;20039;-82
2022/09/25 06:20:42;;;;;;;0.22;0.22;;;;;;;13.14;72.74;100883.84;5065118;29;20111;-81
2022/09/25 06:23:13;;;;;;;5.13;1.13;;;;;;;13.14;72.67;100883.00;5073028;29;20043;-81
2022/09/25 06:25:44;;;;;;;0.30;0.30;;;;;;;13.11;72.62;100883.94;5100211;28;20619;-81
2022/09/25 06:28:15;;;;;;;0.20;0.20;;;;;;;13.27;72.70;100878.13;5083669;29;20087;-82
2022/09/25 06:30:46;;;;;;;0.20;0.20;;;;;;;13.28;72.52;100891.25;5077954;29;20452;-80
2022/09/25 06:33:16;;;;;;;0.45;0.45;;;;;;;13.24;72.54;100889.63;5102791;29;20058;-80
2022/09/25 06:35:48;;;;;;;0.43;0.43;;;;;;;13.21;72.84;100897.66;5083989;28;20063;-83
2022/09/25 06:38:19;;;;;;;0.20;0.20;;;;;;;13.21;72.13;100890.59;5072075;29;20111;-81
2022/09/25 06:40:50;;;;;;;0.20;0.20;;;;;;;13.21;72.61;100900.31;5085546;29;20047;-81
2022/09/25 06:43:21;;;;;;;0.32;0.32;;;;;;;13.05;73.57;100898.22;5074285;29;20227;-81
2022/09/25 06:45:51;;;;;;;0.30;0.30;;;;;;;12.90;74.34;100901.34;5093089;28;20067;-81
2022/09/25 06:48:22;;;;;;;4.82;1.48;;;;;;;13.15;73.31;100896.09;5089612;29;20051;-82
2022/09/25 06:50:55;;;;;;;1.35;1.23;;;;;;;13.18;72.55;100900.41;5075654;28;20126;-82
2022/09/25 06:53:25;;;;;;;0.20;0.20;;;;;;;13.26;71.87;100900.13;5069772;29;20124;-82
2022/09/25 06:55:57;;;;;;;0.30;0.30;;;;;;;13.25;72.16;100901.06;5093343;28;20126;-81
2022/09/25 06:59:19;;;;;;;8.15;1.75;;;;;;;13.21;72.02;100901.16;5064478;29;20115;-82
2022/09/25 07:05:12;;;;;;;0.20;0.20;;;;;;;13.29;71.97;100902.66;5031940;29;20057;-81
2022/09/25 07:07:44;;;;;;;0.57;0.57;;;;;;;13.21;72.06;100901.16;5068785;29;20035;-82
2022/09/25 07:10:15;;;;;;;0.68;0.68;;;;;;;13.32;71.59;100913.94;5068549;29;20062;-81
2022/09/25 07:12:48;;;;;;;1.35;1.33;;;;;;;13.13;72.32;100912.88;5070413;28;20129;-82
2022/09/25 07:15:19;;;;;;;0.47;0.47;;;;;;;13.20;72.29;100911.75;5067040;29;20130;-81
2022/09/25 07:17:50;;;;;;;0.50;0.50;;;;;;;13.27;71.50;100910.63;5085226;28;20126;-80
2022/09/25 07:20:21;;;;;;;0.38;0.38;;;;;;;13.15;72.36;100919.81;5080096;29;20044;-81
2022/09/25 07:22:53;;;;;;;1.95;1.27;;;;;;;13.18;71.76;100917.06;5091464;28;20566;-80
2022/09/25 07:25:24;;;;;;;0.50;0.50;;;;;;;13.08;72.25;100915.69;5083665;28;20060;-81
2022/09/25 07:27:54;;;;;;;0.20;0.20;;;;;;;13.17;71.95;100918.00;5062820;29;20054;-80
2022/09/25 07:30:28;;;;;;;0.20;0.20;;;;;;;13.23;71.57;100919.53;5083098;29;20085;-83
2022/09/25 07:33:02;;;;;;;0.20;0.20;;;;;;;13.19;71.62;100924.03;5111628;28;20119;-83
2022/09/25 07:35:34;;;;;;;0.40;0.40;;;;;;;13.30;71.00;100923.69;5075743;29;20054;-82
2022/09/25 07:38:04;;;;;;;0.55;0.45;;;;;;;13.26;71.37;100916.81;5084969;28;20083;-82
2022/09/25 07:40:36;;;;;;;0.20;0.20;;;;;;;13.29;70.74;100935.16;5079634;29;20324;-82
2022/09/25 07:44:00;;;;;;;1.40;1.13;;;;;;;13.29;70.82;100927.25;5104329;28;20048;-82
2022/09/25 07:46:30;;;;;;;6.28;2.15;;;;;;;13.30;70.74;100922.81;5079685;28;20771;-82
2022/09/25 07:49:01;;;;;;;0.40;0.40;;;;;;;13.36;70.63;100923.47;5064709;28;20058;-80
2022/09/25 07:51:32;;;;;;;0.65;0.65;;;;;;;13.32;70.43;100913.94;5081730;29;20579;-81
2022/09/25 07:54:03;;;;;;;0.28;0.28;;;;;;;13.26;70.83;100929.13;5079447;28;20079;-81
2022/09/25 07:56:33;;;;;;;0.32;0.32;;;;;;;13.16;71.41;100924.16;5066397;29;20181;-81
2022/09/25 07:59:04;;;;;;;1.08;0.95;;;;;;;13.15;71.54;100927.72;5064369;28;20051;-79
2022/09/25 08:01:35;;;;;;;1.00;0.85;;;;;;;13.26;71.64;100929.13;5070056;28;20043;-82
2022/09/25 08:04:18;;;;;;;0.30;0.30;;;;;;;13.31;71.68;100924.53;5064489;28;20043;-82
2022/09/25 08:06:50;;;;;;;0.30;0.30;;;;;;;13.30;71.16;100923.69;5046504;28;20530;-84
2022/09/25 08:09:20;;;;;;;1.00;1.00;;;;;;;13.27;70.86;100922.91;5081358;28;20051;-80
2022/09/25 08:11:51;;;;;;;0.47;0.47;;;;;;;13.24;70.88;100921.25;5097625;28;20027;-82
2022/09/25 08:14:24;;;;;;;0.40;0.40;;;;;;;13.21;71.12;100919.59;5078181;29;20114;-81
2022/09/25 08:16:54;;;;;;;1.92;0.85;;;;;;;13.29;70.82;100929.88;5061762;28;20046;-82
2022/09/25 08:19:26;;;;;;;0.40;0.25;;;;;;;13.28;70.71;100924.63;5087441;28;20090;-83
2022/09/25 08:21:57;;;;;;;0.20;0.20;;;;;;;13.27;70.86;100936.09;5086243;28;20066;-82
2022/09/25 08:24:28;;;;;;;0.40;0.40;;;;;;;13.28;70.77;100937.81;5092437;28;20449;-82
2022/09/25 08:26:58;;;;;;;0.63;0.45;;;;;;;13.35;70.83;100932.28;5072197;28;20894;-80
2022/09/25 08:29:30;;;;;;;0.30;0.30;;;;;;;13.47;70.08;100933.66;5062857;28;20087;-81
2022/09/25 08:32:00;;;;;;;0.35;0.35;;;;;;;13.41;70.23;100933.00;5077756;29;20613;-79
2022/09/25 08:34:31;;;;;;;0.20;0.20;;;;;;;13.45;70.56;100929.38;5095717;28;20043;-80
2022/09/25 08:37:01;;;;;;;0.28;0.28;;;;;;;13.32;70.79;100923.63;5082463;28;20039;-80
2022/09/25 08:39:32;;;;;;;0.20;0.20;;;;;;;13.33;70.80;100922.72;5098865;28;20129;-81
2022/09/25 08:42:03;;;;;;;1.85;1.58;;;;;;;13.40;70.55;100918.97;5092029;28;20075;-82
2022/09/25 08:44:46;;;;;;;0.20;0.20;;;;;;;13.36;70.84;100912.06;5075280;28;20047;-81
2022/09/25 08:50:21;;;;;;;1.67;0.93;;;;;;;13.46;70.15;100915.28;5137759;28;20035;-82
2022/09/25 08:53:04;;;;;;;0.22;0.22;;;;;;;13.49;70.07;100920.41;5084041;29;20039;-83
2022/09/25 08:58:41;;;;;;;0.20;0.20;;;;;;;13.53;69.98;100922.03;5105136;28;20049;-81
2022/09/25 09:01:16;;;;;;;2.55;1.88;;;;;;;13.65;69.90;100928.63;5095219;28;20082;-81
2022/09/25 09:03:54;;;;;;;0.20;0.20;;;;;;;13.69;69.16;100922.31;5112565;28;20051;-82
2022/09/25 09:06:26;;;;;;;0.20;0.20;;;;;;;13.76;68.62;100929.09;5101415;28;20047;-81
2022/09/25 09:09:06;;;;;;;0.55;0.50;;;;;;;13.64;68.57;100932.19;5083322;29;20114;-82
2022/09/25 09:12:06;;;;;;;0.55;0.55;;;;;;;13.71;68.95;100931.03;5099681;29;20056;-81
2022/09/25 09:14:49;;;;;;;0.38;0.38;;;;;;;13.74;68.43;100936.22;5075773;28;20043;-80
2022/09/25 09:17:24;;;;;;;0.95;0.95;;;;;;;13.77;67.72;100941.34;5082527;28;20083;-81
2022/09/25 09:20:01;;;;;;;0.28;0.28;;;;;;;13.77;66.62;100932.59;5078186;29;20048;-81
2022/09/25 09:22:40;;;;;;;0.57;0.32;;;;;;;13.93;66.28;100930.22;5070867;28;20203;-80
2022/09/25 09:25:25;;;;;;;0.35;0.35;;;;;;;13.93;66.56;100930.22;5085237;28;20479;-80
2022/09/25 09:28:21;;;;;;;2.08;0.35;;;;;;;13.98;67.30;100933.56;5069978;28;20067;-79
2022/09/25 09:31:04;;;;;;;0.30;0.30;;;;;;;13.95;67.84;100929.28;5060824;29;20074;-80
2022/09/25 09:33:46;;;;;;;0.20;0.20;;;;;;;14.01;66.54;100922.88;5086715;28;20118;-80
2022/09/25 09:36:52;;;;;;;0.20;0.20;;;;;;;14.10;66.29;100921.69;5117017;28;20058;-79
2022/09/25 09:39:30;;;;;;;0.20;0.20;;;;;;;14.12;65.44;100920.69;5059200;28;20082;-81
2022/09/25 09:42:37;;;;;;;0.52;0.52;;;;;;;14.08;63.73;100919.13;5101392;29;20412;-80
2022/09/25 09:45:22;;;;;;;0.45;0.45;;;;;;;14.27;64.63;100910.47;5076467;29;20055;-82
2022/09/25 09:47:56;;;;;;;0.20;0.20;;;;;;;14.20;63.95;100907.22;5063751;28;20031;-81
2022/09/25 09:50:31;;;;;;;;;;;;;;;14.29;63.77;100912.16;5093257;28;20039;-80
2022/09/25 09:53:16;;;;;;;3.42;1.10;;;;;;;14.32;64.27;100905.88;5064811;28;19973;-81
2022/09/25 09:55:55;;;;;;;0.20;0.20;;;;;;;14.35;63.62;100908.38;5068351;29;20059;-80
2022/09/25 09:58:29;;;;;;;0.95;0.80;;;;;;;14.30;63.14;100907.72;5084070;28;20039;-80
2022/09/25 10:01:00;;;;;;;1.27;1.20;;;;;;;14.37;63.78;100909.19;5069658;28;20062;-80
2022/09/25 10:03:36;;;;;;;0.20;0.20;;;;;;;14.41;63.51;100910.78;5084993;28;20713;-79
2022/09/25 10:06:15;;;;;;;0.20;0.20;;;;;;;14.47;61.52;100907.91;5064983;28;20394;-80
2022/09/25 10:08:47;;;;;;;5.00;1.05;;;;;;;14.53;62.94;100916.47;5084861;28;20039;-81
2022/09/25 10:11:21;;;;;;;0.65;0.65;;;;;;;14.52;62.67;100907.72;5088417;28;20044;-81
2022/09/25 10:14:06;;;;;;;0.30;0.30;;;;;;;14.62;62.92;100909.06;5061334;28;20621;-80
2022/09/25 10:16:47;;;;;;;0.20;0.20;;;;;;;14.58;59.69;100902.16;5075980;28;20046;-80
2022/09/25 10:19:24;;;;;;;0.20;0.20;;;;;;;14.56;62.95;100900.53;5061333;28;20646;-80
2022/09/25 10:22:11;;;;;;;0.40;0.40;;;;;;;14.56;61.17;100900.53;5078356;29;20377;-82
2022/09/25 10:25:01;;;;;;;0.50;0.50;;;;;;;14.55;60.81;100906.72;5069357;28;20047;-81
2022/09/25 10:27:34;;;;;;;0.82;0.75;;;;;;;14.73;59.30;100905.13;5087927;28;20087;-81
2022/09/25 10:30:08;;;;;;;0.20;0.20;;;;;;;14.83;58.53;100901.19;5094996;28;20062;-80
2022/09/25 10:32:56;;;;;;;0.50;0.50;;;;;;;14.72;59.54;100903.41;5105349;29;20058;-81
2022/09/25 10:35:36;;;;;;;0.20;0.20;;;;;;;14.73;59.51;100900.72;5073195;28;20050;-81
2022/09/25 10:38:32;;;;;;;0.57;0.57;;;;;;;14.69;59.46;100888.56;5096926;28;20047;-80
2022/09/25 10:41:17;;;;;;;1.85;0.60;;;;;;;14.67;60.06;100892.19;5096227;28;20055;-80
2022/09/25 10:43:59;;;;;;;0.30;0.30;;;;;;;14.79;60.27;100892.53;5063945;29;20055;-80
2022/09/25 10:52:21;;;;;;;0.95;0.80;;;;;;;14.92;60.90;100889.34;5093439;28;20071;-79
2022/09/25 10:55:13;;;;;;;0.20;0.20;;;;;;;15.02;60.57;100893.34;5083518;28;20035;-80
2022/09/25 10:57:46;;;;;;;0.75;0.75;;;;;;;14.98;57.07;100899.69;5116245;28;20032;-80
2022/09/25 11:00:22;;;;;;;;;;;;;;;15.02;58.25;100898.63;5098824;28;20778;-80
2022/09/25 11:03:00;;;;;;;0.30;0.30;;;;;;;15.02;57.90;100900.41;5082924;28;19910;-80
2022/09/25 11:05:34;;;;;;;0.40;0.40;;;;;;;15.07;57.98;100904.59;5085089;28;20047;-80
2022/09/25 11:08:06;;;;;;;0.20;0.20;;;;;;;15.11;58.30;100900.88;5085745;28;20052;-80
2022/09/25 11:10:49;;;;;;;0.30;0.30;;;;;;;15.03;57.37;100892.41;5100031;28;20051;-80
2022/09/25 11:13:23;;;;;;;0.20;0.20;;;;;;;15.09;58.50;100894.78;5076661;29;20052;-79
2022/09/25 11:16:01;;;;;;;0.68;0.68;;;;;;;15.15;58.05;100896.31;5066807;29;20039;-80
2022/09/25 11:18:51;;;;;;;;;;;;;;;;;;;;;
2022/09/25 11:21:58;;;;;;;0.20;0.20;;;;;;;15.17;58.26;100894.47;5118415;28;20436;-80
2022/09/25 11:24:39;;;;;;;0.68;0.68;;;;;;;15.22;58.12;100896.91;5078681;28;20126;-80
2022/09/25 11:27:09;;;;;;;1.35;0.52;;;;;;;15.23;58.07;100893.34;5062150;28;20051;-81
2022/09/25 11:29:57;;;;;;;0.20;0.20;;;;;;;15.21;57.90;100888.09;5090356;28;20074;-80
2022/09/25 11:32:57;;;;;;;0.20;0.20;;;;;;;15.27;57.28;100884.34;5078517;28;20431;-81
2022/09/25 11:35:57;;;;;;;0.20;0.20;;;;;;;15.32;58.22;100882.38;5106357;28;20062;-80
2022/09/25 11:42:17;;;;;;;0.43;0.43;;;;;;;15.64;56.58;100884.47;5090564;28;20099;-81
2022/09/25 11:45:07;;;;;;;0.20;0.20;;;;;;;15.65;55.38;100873.84;5068441;28;20035;-80
2022/09/25 11:47:53;;;;;;;0.20;0.20;;;;;;;15.67;54.21;100874.59;5098127;28;20040;-81
2022/09/25 11:51:02;;;;;;;0.28;0.28;;;;;;;15.76;56.86;100880.41;5070715;28;20457;-81
2022/09/25 11:54:00;;;;;;;0.20;0.20;;;;;;;15.86;56.73;100874.66;5068522;28;20512;-80
2022/09/25 11:57:20;;;;;;;0.30;0.30;;;;;;;15.98;55.17;100865.28;5078058;28;20043;-81
2022/09/25 12:00:19;;;;;;;0.20;0.20;;;;;;;16.04;53.20;100870.28;5089064;29;20044;-81
2022/09/25 12:03:09;;;;;;;0.20;0.20;;;;;;;16.13;54.02;100862.81;5088624;28;20043;-81
2022/09/25 12:06:21;;;;;;;;;;;;;;;;;;;;;
2022/09/25 12:09:24;;;;;;;0.30;0.30;;;;;;;16.30;54.97;100865.53;5071198;29;20583;-81
2022/09/25 12:12:34;;;;;;;0.20;0.20;;;;;;;16.33;51.88;100868.00;5079841;28;20091;-81
2022/09/25 12:15:39;;;;;;;0.20;0.20;;;;;;;16.40;52.91;100860.63;5075850;28;20047;-81
2022/09/25 12:18:31;;;;;;;;;;;;;;;;;;;;;
2022/09/25 12:21:42;;;;;;;0.20;0.20;;;;;;;16.45;52.34;100841.84;5092564;28;20043;-80
2022/09/25 12:24:42;;;;;;;0.20;0.20;;;;;;;16.46;51.83;100839.13;5069550;28;20059;-81
2022/09/25 12:27:36;;;;;;;0.20;0.20;;;;;;;16.67;49.67;100839.00;5105123;28;20067;-81
2022/09/25 12:30:22;;;;;;;0.20;0.20;;;;;;;16.65;50.30;100839.03;5111464;28;20055;-80
2022/09/25 12:33:19;;;;;;;0.60;0.60;;;;;;;16.74;49.46;100828.91;5116837;28;20492;-81
2022/09/25 12:35:58;;;;;;;2.92;1.30;;;;;;;16.83;49.96;100831.09;5069999;28;20051;-80
2022/09/25 12:38:58;;;;;;;0.13;0.13;;;;;;;16.93;50.16;100826.22;5080741;28;20065;-81
2022/09/25 12:41:49;;;;;;;0.20;0.20;;;;;;;17.37;48.51;100823.00;5072827;28;20038;-81
2022/09/25 12:44:28;;;;;;;0.45;0.20;;;;;;;17.28;48.84;100821.69;5066618;29;20133;-81
2022/09/25 12:47:22;;;;;;;0.20;0.20;;;;;;;17.22;51.01;100822.03;5059596;28;20631;-81
2022/09/25 12:50:28;;;;;;;0.20;0.20;;;;;;;17.15;47.40;100821.50;5095482;28;20048;-81